Portada
METAR-TAF:

METAR-TAF

Aeropuertos :

Sabadell, España

Aeropuerto de Sabadell

latitud: 41-31N, longitud: 002-06E, altitud: 250 m

Observación

El informe se hizo hace 23 minutos, a las 11:00 UTC
Viento 1 kt con dirección variable
Temperatura 15°C
Humedad 72%
Presión 1018 hPa
Visibilidad: 9000 m

METAR: LELL 231100Z VRB01KT 9000 NSC 15/10 Q1018

Hora: 12:23 (11:23 UTC)

Pronóstico

El informe se hizo hace 3 horas y 23 minutos, a las 08:00 UTC
Pronóstico válido del 23 a las 09 UTC al 24 a las 09 UTC
Viento 3 kt con dirección variable
Visibilidad 10 km o más
Escasas nubes a una altura de 3000 ft
Temporalmente
del 23 a las 10 UTC al 23 a las 14 UTC
Viento 9 kt del sureste

TAF: LELL 230800Z 2309/2409 VRB03KT 9999 FEW030 TX23/2313Z TN09/2403Z TEMPO 2310/2314 14009KT

Observaciones y pronósticos meteorológicos de más de 4000 aeropuertos (mensajes METAR y TAF).

Los puntos amarillos y rojos representan las estaciones disponibles.

Ponga el ratón en el punto deseado para ver el nombre de la estación.

Haga clic para ver las observaciones y los pronósticos meteorológicos.

Para cambiar el mapa : haga clic en los botones verdes con una cruz de color negro para hacer un zoom, en el botón verde con un guión para alejar o en las flechas verdes para mapas adyacentes.


METAR-TAF: